sensor_id;sensor_type;location;lat;lon;timestamp;temperature;humidity
60701;DHT22;46541;49.894;10.886;2022-10-17T00:00:37;14.40;99.90
60701;DHT22;46541;49.894;10.886;2022-10-17T00:03:04;14.40;99.90
60701;DHT22;46541;49.894;10.886;2022-10-17T00:05:31;14.50;99.90
60701;DHT22;46541;49.894;10.886;2022-10-17T00:07:58;14.40;99.90
60701;DHT22;46541;49.894;10.886;2022-10-17T00:10:25;14.40;99.90
60701;DHT22;46541;49.894;10.886;2022-10-17T00:12:51;14.30;99.90
60701;DHT22;46541;49.894;10.886;2022-10-17T00:15:19;14.40;99.90
60701;DHT22;46541;49.894;10.886;2022-10-17T00:17:46;14.40;99.90
60701;DHT22;46541;49.894;10.886;2022-10-17T00:20:13;14.40;99.90
60701;DHT22;46541;49.894;10.886;2022-10-17T00:22:40;14.40;99.90
60701;DHT22;46541;49.894;10.886;2022-10-17T00:25:07;14.30;99.90
60701;DHT22;46541;49.894;10.886;2022-10-17T00:27:39;14.30;99.90
60701;DHT22;46541;49.894;10.886;2022-10-17T00:30:10;14.30;99.90
60701;DHT22;46541;49.894;10.886;2022-10-17T00:32:37;14.30;99.90
60701;DHT22;46541;49.894;10.886;2022-10-17T00:35:05;14.30;99.90
60701;DHT22;46541;49.894;10.886;2022-10-17T00:37:32;14.20;99.90
60701;DHT22;46541;49.894;10.886;2022-10-17T00:40:00;14.20;99.90
60701;DHT22;46541;49.894;10.886;2022-10-17T00:42:26;14.10;99.90
60701;DHT22;46541;49.894;10.886;2022-10-17T00:45:17;14.10;99.90
60701;DHT22;46541;49.894;10.886;2022-10-17T00:47:47;14.10;99.90
60701;DHT22;46541;49.894;10.886;2022-10-17T00:50:15;14.00;99.90
60701;DHT22;46541;49.894;10.886;2022-10-17T00:52:43;14.10;99.90
60701;DHT22;46541;49.894;10.886;2022-10-17T00:55:17;14.00;99.90
60701;DHT22;46541;49.894;10.886;2022-10-17T00:57:46;14.00;99.90
60701;DHT22;46541;49.894;10.886;2022-10-17T01:00:14;13.90;99.90
60701;DHT22;46541;49.894;10.886;2022-10-17T01:02:41;13.90;99.90
60701;DHT22;46541;49.894;10.886;2022-10-17T01:05:08;13.90;99.90
60701;DHT22;46541;49.894;10.886;2022-10-17T01:07:36;13.80;99.90
60701;DHT22;46541;49.894;10.886;2022-10-17T01:10:04;13.80;99.90
60701;DHT22;46541;49.894;10.886;2022-10-17T01:26:03;13.70;99.90
60701;DHT22;46541;49.894;10.886;2022-10-17T01:31:25;13.70;99.90
60701;DHT22;46541;49.894;10.886;2022-10-17T01:34:30;13.70;99.90
60701;DHT22;46541;49.894;10.886;2022-10-17T01:37:11;13.80;99.90
60701;DHT22;46541;49.894;10.886;2022-10-17T01:39:53;13.70;99.90
60701;DHT22;46541;49.894;10.886;2022-10-17T01:42:22;13.70;99.90
60701;DHT22;46541;49.894;10.886;2022-10-17T01:45:05;13.70;99.90
60701;DHT22;46541;49.894;10.886;2022-10-17T01:47:34;13.70;99.90
60701;DHT22;46541;49.894;10.886;2022-10-17T01:50:11;13.70;99.90
60701;DHT22;46541;49.894;10.886;2022-10-17T01:52:48;13.70;99.90
60701;DHT22;46541;49.894;10.886;2022-10-17T01:55:20;13.70;99.90
60701;DHT22;46541;49.894;10.886;2022-10-17T01:57:55;13.70;99.90
60701;DHT22;46541;49.894;10.886;2022-10-17T02:00:24;13.60;99.90
60701;DHT22;46541;49.894;10.886;2022-10-17T02:02:56;13.60;99.90
60701;DHT22;46541;49.894;10.886;2022-10-17T02:05:28;13.60;99.90
60701;DHT22;46541;49.894;10.886;2022-10-17T02:07:56;13.60;99.90
60701;DHT22;46541;49.894;10.886;2022-10-17T02:10:53;13.60;99.90
60701;DHT22;46541;49.894;10.886;2022-10-17T02:13:43;13.70;99.90
60701;DHT22;46541;49.894;10.886;2022-10-17T02:19:16;13.60;99.90
60701;DHT22;46541;49.894;10.886;2022-10-17T02:24:51;13.60;99.90
60701;DHT22;46541;49.894;10.886;2022-10-17T02:29:57;13.60;99.90
60701;DHT22;46541;49.894;10.886;2022-10-17T02:35:17;13.60;99.90
60701;DHT22;46541;49.894;10.886;2022-10-17T02:37:46;13.50;99.90
60701;DHT22;46541;49.894;10.886;2022-10-17T02:40:16;13.50;99.90
60701;DHT22;46541;49.894;10.886;2022-10-17T02:42:44;13.40;99.90
60701;DHT22;46541;49.894;10.886;2022-10-17T02:45:12;13.40;99.90
60701;DHT22;46541;49.894;10.886;2022-10-17T02:50:07;13.40;99.90
60701;DHT22;46541;49.894;10.886;2022-10-17T02:52:54;13.40;99.90
60701;DHT22;46541;49.894;10.886;2022-10-17T02:55:29;13.30;99.90
60701;DHT22;46541;49.894;10.886;2022-10-17T02:58:01;13.30;99.90
60701;DHT22;46541;49.894;10.886;2022-10-17T03:00:30;13.30;99.90
60701;DHT22;46541;49.894;10.886;2022-10-17T03:02:58;13.30;99.90
60701;DHT22;46541;49.894;10.886;2022-10-17T03:05:27;13.30;99.90
60701;DHT22;46541;49.894;10.886;2022-10-17T03:07:55;13.20;99.90
60701;DHT22;46541;49.894;10.886;2022-10-17T03:10:22;13.30;99.90
60701;DHT22;46541;49.894;10.886;2022-10-17T03:12:49;13.30;99.90
60701;DHT22;46541;49.894;10.886;2022-10-17T03:15:16;13.30;99.90
60701;DHT22;46541;49.894;10.886;2022-10-17T03:17:42;13.30;99.90
60701;DHT22;46541;49.894;10.886;2022-10-17T03:20:14;13.30;99.90
60701;DHT22;46541;49.894;10.886;2022-10-17T03:22:41;13.20;99.90
60701;DHT22;46541;49.894;10.886;2022-10-17T03:25:07;13.20;99.90
60701;DHT22;46541;49.894;10.886;2022-10-17T03:27:34;13.20;99.90
60701;DHT22;46541;49.894;10.886;2022-10-17T03:30:01;13.30;99.90
60701;DHT22;46541;49.894;10.886;2022-10-17T03:32:28;13.20;99.90
60701;DHT22;46541;49.894;10.886;2022-10-17T03:34:54;13.20;99.90
60701;DHT22;46541;49.894;10.886;2022-10-17T03:37:21;13.20;99.90
60701;DHT22;46541;49.894;10.886;2022-10-17T03:39:48;13.20;99.90
60701;DHT22;46541;49.894;10.886;2022-10-17T03:42:14;13.20;99.90
60701;DHT22;46541;49.894;10.886;2022-10-17T03:44:41;13.20;99.90
60701;DHT22;46541;49.894;10.886;2022-10-17T03:47:08;13.20;99.90
60701;DHT22;46541;49.894;10.886;2022-10-17T03:49:39;13.20;99.90
60701;DHT22;46541;49.894;10.886;2022-10-17T03:52:10;13.20;99.90
60701;DHT22;46541;49.894;10.886;2022-10-17T03:54:38;13.20;99.90
60701;DHT22;46541;49.894;10.886;2022-10-17T03:57:05;13.30;99.90
60701;DHT22;46541;49.894;10.886;2022-10-17T03:59:31;13.30;99.90
60701;DHT22;46541;49.894;10.886;2022-10-17T04:01:58;13.30;99.90
60701;DHT22;46541;49.894;10.886;2022-10-17T04:04:25;13.30;99.90
60701;DHT22;46541;49.894;10.886;2022-10-17T04:06:51;13.20;99.90
60701;DHT22;46541;49.894;10.886;2022-10-17T04:09:18;13.20;99.90
60701;DHT22;46541;49.894;10.886;2022-10-17T04:11:45;13.20;99.90
60701;DHT22;46541;49.894;10.886;2022-10-17T04:14:12;13.20;99.90
60701;DHT22;46541;49.894;10.886;2022-10-17T04:16:39;13.20;99.90
60701;DHT22;46541;49.894;10.886;2022-10-17T04:19:05;13.20;99.90
60701;DHT22;46541;49.894;10.886;2022-10-17T04:21:32;13.20;99.90
60701;DHT22;46541;49.894;10.886;2022-10-17T04:23:59;13.20;99.90
60701;DHT22;46541;49.894;10.886;2022-10-17T04:26:26;13.20;99.90
60701;DHT22;46541;49.894;10.886;2022-10-17T04:28:53;13.10;99.90
60701;DHT22;46541;49.894;10.886;2022-10-17T04:31:20;13.20;99.90
60701;DHT22;46541;49.894;10.886;2022-10-17T04:33:49;13.20;99.90
60701;DHT22;46541;49.894;10.886;2022-10-17T04:36:18;13.10;99.90
60701;DHT22;46541;49.894;10.886;2022-10-17T04:38:45;13.10;99.90
60701;DHT22;46541;49.894;10.886;2022-10-17T04:41:14;13.10;99.90
60701;DHT22;46541;49.894;10.886;2022-10-17T04:43:42;13.10;99.90
60701;DHT22;46541;49.894;10.886;2022-10-17T04:46:15;13.10;99.90
60701;DHT22;46541;49.894;10.886;2022-10-17T04:48:42;13.10;99.90
60701;DHT22;46541;49.894;10.886;2022-10-17T04:51:14;13.10;99.90
60701;DHT22;46541;49.894;10.886;2022-10-17T04:53:42;13.00;99.90
60701;DHT22;46541;49.894;10.886;2022-10-17T04:56:10;13.10;99.90
60701;DHT22;46541;49.894;10.886;2022-10-17T04:58:37;13.10;99.90
60701;DHT22;46541;49.894;10.886;2022-10-17T05:01:10;13.10;99.90
60701;DHT22;46541;49.894;10.886;2022-10-17T05:03:37;13.10;99.90
60701;DHT22;46541;49.894;10.886;2022-10-17T05:06:10;13.10;99.90
60701;DHT22;46541;49.894;10.886;2022-10-17T05:08:37;13.10;99.90
60701;DHT22;46541;49.894;10.886;2022-10-17T05:11:05;13.10;99.90
60701;DHT22;46541;49.894;10.886;2022-10-17T05:13:40;13.10;99.90
60701;DHT22;46541;49.894;10.886;2022-10-17T05:16:07;13.10;99.90
60701;DHT22;46541;49.894;10.886;2022-10-17T05:18:33;13.10;99.90
60701;DHT22;46541;49.894;10.886;2022-10-17T05:21:02;13.00;99.90
60701;DHT22;46541;49.894;10.886;2022-10-17T05:23:29;13.00;99.90
60701;DHT22;46541;49.894;10.886;2022-10-17T05:25:56;13.00;99.90
60701;DHT22;46541;49.894;10.886;2022-10-17T05:28:23;12.90;99.90
60701;DHT22;46541;49.894;10.886;2022-10-17T05:30:50;13.00;99.90
60701;DHT22;46541;49.894;10.886;2022-10-17T05:33:16;13.00;99.90
60701;DHT22;46541;49.894;10.886;2022-10-17T05:35:43;12.90;99.90
60701;DHT22;46541;49.894;10.886;2022-10-17T05:38:10;13.00;99.90
60701;DHT22;46541;49.894;10.886;2022-10-17T05:40:37;12.90;99.90
60701;DHT22;46541;49.894;10.886;2022-10-17T05:43:04;12.90;99.90
60701;DHT22;46541;49.894;10.886;2022-10-17T05:45:31;12.90;99.90
60701;DHT22;46541;49.894;10.886;2022-10-17T05:47:58;12.90;99.90
60701;DHT22;46541;49.894;10.886;2022-10-17T05:50:25;12.90;99.90
60701;DHT22;46541;49.894;10.886;2022-10-17T05:52:53;12.90;99.90
60701;DHT22;46541;49.894;10.886;2022-10-17T05:55:20;12.90;99.90
60701;DHT22;46541;49.894;10.886;2022-10-17T05:57:47;13.00;99.90
60701;DHT22;46541;49.894;10.886;2022-10-17T06:00:14;13.00;99.90
60701;DHT22;46541;49.894;10.886;2022-10-17T06:02:42;13.00;99.90
60701;DHT22;46541;49.894;10.886;2022-10-17T06:05:08;13.10;99.90
60701;DHT22;46541;49.894;10.886;2022-10-17T06:07:35;13.20;99.90
60701;DHT22;46541;49.894;10.886;2022-10-17T06:10:02;13.20;99.90
60701;DHT22;46541;49.894;10.886;2022-10-17T06:12:29;13.20;99.90
60701;DHT22;46541;49.894;10.886;2022-10-17T06:14:57;13.20;99.90
60701;DHT22;46541;49.894;10.886;2022-10-17T06:17:24;13.20;99.90
60701;DHT22;46541;49.894;10.886;2022-10-17T06:19:51;13.20;99.90
60701;DHT22;46541;49.894;10.886;2022-10-17T06:22:18;13.20;99.90
60701;DHT22;46541;49.894;10.886;2022-10-17T06:24:44;13.20;99.90
60701;DHT22;46541;49.894;10.886;2022-10-17T06:27:11;13.20;99.90
60701;DHT22;46541;49.894;10.886;2022-10-17T06:29:38;13.20;99.90
60701;DHT22;46541;49.894;10.886;2022-10-17T06:32:05;13.30;99.90
60701;DHT22;46541;49.894;10.886;2022-10-17T06:34:38;13.20;99.90
60701;DHT22;46541;49.894;10.886;2022-10-17T06:37:04;13.30;99.90
60701;DHT22;46541;49.894;10.886;2022-10-17T06:39:31;13.30;99.90
60701;DHT22;46541;49.894;10.886;2022-10-17T06:42:00;13.30;99.90
60701;DHT22;46541;49.894;10.886;2022-10-17T06:44:27;13.30;99.90
60701;DHT22;46541;49.894;10.886;2022-10-17T06:46:58;13.40;99.90
60701;DHT22;46541;49.894;10.886;2022-10-17T06:49:25;13.40;99.90
60701;DHT22;46541;49.894;10.886;2022-10-17T06:51:53;13.40;99.90
60701;DHT22;46541;49.894;10.886;2022-10-17T06:54:20;13.40;99.90
60701;DHT22;46541;49.894;10.886;2022-10-17T06:56:46;13.40;99.90
60701;DHT22;46541;49.894;10.886;2022-10-17T06:59:13;13.40;99.90
60701;DHT22;46541;49.894;10.886;2022-10-17T07:01:41;13.40;99.90
60701;DHT22;46541;49.894;10.886;2022-10-17T07:04:12;13.40;99.90
60701;DHT22;46541;49.894;10.886;2022-10-17T07:06:39;13.40;99.90
60701;DHT22;46541;49.894;10.886;2022-10-17T07:09:06;13.50;99.90
60701;DHT22;46541;49.894;10.886;2022-10-17T07:11:33;13.50;99.90
60701;DHT22;46541;49.894;10.886;2022-10-17T07:14:01;13.50;99.90
60701;DHT22;46541;49.894;10.886;2022-10-17T07:16:28;13.50;99.90
60701;DHT22;46541;49.894;10.886;2022-10-17T07:18:55;13.60;99.90
60701;DHT22;46541;49.894;10.886;2022-10-17T07:21:22;13.60;99.90
60701;DHT22;46541;49.894;10.886;2022-10-17T07:23:49;13.70;99.90
60701;DHT22;46541;49.894;10.886;2022-10-17T07:26:17;13.80;99.90
60701;DHT22;46541;49.894;10.886;2022-10-17T07:28:45;13.90;99.90
60701;DHT22;46541;49.894;10.886;2022-10-17T07:31:16;14.00;99.90
60701;DHT22;46541;49.894;10.886;2022-10-17T07:33:43;14.00;99.90
60701;DHT22;46541;49.894;10.886;2022-10-17T07:36:16;14.10;99.90
60701;DHT22;46541;49.894;10.886;2022-10-17T07:38:43;14.20;99.90
60701;DHT22;46541;49.894;10.886;2022-10-17T07:41:11;14.30;99.90
60701;DHT22;46541;49.894;10.886;2022-10-17T07:43:44;14.30;99.90
60701;DHT22;46541;49.894;10.886;2022-10-17T07:46:11;14.40;99.90
60701;DHT22;46541;49.894;10.886;2022-10-17T07:48:38;14.50;99.90
60701;DHT22;46541;49.894;10.886;2022-10-17T07:51:08;14.60;99.90
60701;DHT22;46541;49.894;10.886;2022-10-17T07:53:36;14.60;99.90
60701;DHT22;46541;49.894;10.886;2022-10-17T07:56:05;14.70;99.90
60701;DHT22;46541;49.894;10.886;2022-10-17T07:58:33;14.80;99.90
60701;DHT22;46541;49.894;10.886;2022-10-17T08:01:05;14.90;99.90
60701;DHT22;46541;49.894;10.886;2022-10-17T08:03:37;14.90;99.90
60701;DHT22;46541;49.894;10.886;2022-10-17T08:06:04;15.00;99.90
60701;DHT22;46541;49.894;10.886;2022-10-17T08:08:31;15.10;99.90
60701;DHT22;46541;49.894;10.886;2022-10-17T08:11:03;15.20;99.90
60701;DHT22;46541;49.894;10.886;2022-10-17T08:13:31;15.30;99.90
60701;DHT22;46541;49.894;10.886;2022-10-17T08:16:02;15.40;99.90
60701;DHT22;46541;49.894;10.886;2022-10-17T08:18:30;15.50;99.90
60701;DHT22;46541;49.894;10.886;2022-10-17T08:21:01;15.60;99.90
60701;DHT22;46541;49.894;10.886;2022-10-17T08:23:28;15.60;99.90
60701;DHT22;46541;49.894;10.886;2022-10-17T08:25:58;15.70;99.90
60701;DHT22;46541;49.894;10.886;2022-10-17T08:28:25;15.80;99.90
60701;DHT22;46541;49.894;10.886;2022-10-17T08:30:52;15.90;99.90
60701;DHT22;46541;49.894;10.886;2022-10-17T08:33:19;16.00;99.90
60701;DHT22;46541;49.894;10.886;2022-10-17T08:35:46;16.10;99.90
60701;DHT22;46541;49.894;10.886;2022-10-17T08:38:12;16.20;99.90
60701;DHT22;46541;49.894;10.886;2022-10-17T08:40:40;16.30;99.90
60701;DHT22;46541;49.894;10.886;2022-10-17T08:43:17;16.30;99.90
60701;DHT22;46541;49.894;10.886;2022-10-17T08:45:50;16.40;99.90
60701;DHT22;46541;49.894;10.886;2022-10-17T08:48:20;16.50;99.90
60701;DHT22;46541;49.894;10.886;2022-10-17T08:50:50;16.60;99.90
60701;DHT22;46541;49.894;10.886;2022-10-17T08:54:08;16.60;99.90
60701;DHT22;46541;49.894;10.886;2022-10-17T08:56:37;16.70;99.90
60701;DHT22;46541;49.894;10.886;2022-10-17T08:59:25;16.80;99.90
60701;DHT22;46541;49.894;10.886;2022-10-17T09:05:24;16.90;99.90
60701;DHT22;46541;49.894;10.886;2022-10-17T09:16:08;17.20;99.90
60701;DHT22;46541;49.894;10.886;2022-10-17T09:18:44;17.30;99.90
60701;DHT22;46541;49.894;10.886;2022-10-17T09:21:20;17.40;99.90
60701;DHT22;46541;49.894;10.886;2022-10-17T09:24:02;17.40;99.90
60701;DHT22;46541;49.894;10.886;2022-10-17T09:26:39;17.50;99.90
60701;DHT22;46541;49.894;10.886;2022-10-17T09:29:19;17.60;99.90
60701;DHT22;46541;49.894;10.886;2022-10-17T09:32:02;17.60;99.90
60701;DHT22;46541;49.894;10.886;2022-10-17T09:34:31;17.80;99.90
60701;DHT22;46541;49.894;10.886;2022-10-17T09:37:00;17.90;99.90
60701;DHT22;46541;49.894;10.886;2022-10-17T09:39:27;18.00;99.90
60701;DHT22;46541;49.894;10.886;2022-10-17T09:41:59;18.10;99.90
60701;DHT22;46541;49.894;10.886;2022-10-17T09:44:37;18.10;99.90
60701;DHT22;46541;49.894;10.886;2022-10-17T09:47:12;18.20;99.90
60701;DHT22;46541;49.894;10.886;2022-10-17T09:49:43;18.30;99.90
60701;DHT22;46541;49.894;10.886;2022-10-17T09:52:17;18.30;99.90
60701;DHT22;46541;49.894;10.886;2022-10-17T09:54:54;18.50;99.90
60701;DHT22;46541;49.894;10.886;2022-10-17T09:57:23;18.60;99.90
60701;DHT22;46541;49.894;10.886;2022-10-17T10:00:01;18.70;99.90
60701;DHT22;46541;49.894;10.886;2022-10-17T10:02:29;18.70;99.90
60701;DHT22;46541;49.894;10.886;2022-10-17T10:05:04;18.80;99.90
60701;DHT22;46541;49.894;10.886;2022-10-17T10:07:36;18.90;99.90
60701;DHT22;46541;49.894;10.886;2022-10-17T10:10:06;18.90;99.90
60701;DHT22;46541;49.894;10.886;2022-10-17T10:12:36;19.00;99.90
60701;DHT22;46541;49.894;10.886;2022-10-17T10:15:33;19.20;99.90
60701;DHT22;46541;49.894;10.886;2022-10-17T10:18:00;19.50;99.90
60701;DHT22;46541;49.894;10.886;2022-10-17T10:20:37;19.80;99.90
60701;DHT22;46541;49.894;10.886;2022-10-17T10:23:22;20.00;99.90
60701;DHT22;46541;49.894;10.886;2022-10-17T10:25:56;20.20;99.90
60701;DHT22;46541;49.894;10.886;2022-10-17T10:28:34;20.30;99.90
60701;DHT22;46541;49.894;10.886;2022-10-17T10:31:05;20.50;99.90
60701;DHT22;46541;49.894;10.886;2022-10-17T10:33:35;20.70;99.90
60701;DHT22;46541;49.894;10.886;2022-10-17T10:36:07;20.80;99.90
60701;DHT22;46541;49.894;10.886;2022-10-17T10:38:35;20.90;99.90
60701;DHT22;46541;49.894;10.886;2022-10-17T10:41:08;21.10;99.90
60701;DHT22;46541;49.894;10.886;2022-10-17T10:44:01;21.20;99.90
60701;DHT22;46541;49.894;10.886;2022-10-17T10:46:28;21.30;99.90
60701;DHT22;46541;49.894;10.886;2022-10-17T10:49:00;21.40;99.90
60701;DHT22;46541;49.894;10.886;2022-10-17T10:51:45;21.50;99.90
60701;DHT22;46541;49.894;10.886;2022-10-17T10:54:33;21.70;99.90
60701;DHT22;46541;49.894;10.886;2022-10-17T10:57:05;21.70;99.90
60701;DHT22;46541;49.894;10.886;2022-10-17T10:59:45;21.70;99.90
60701;DHT22;46541;49.894;10.886;2022-10-17T11:02:51;21.80;99.90
60701;DHT22;46541;49.894;10.886;2022-10-17T11:07:53;21.80;99.90
60701;DHT22;46541;49.894;10.886;2022-10-17T11:10:31;21.90;99.90
60701;DHT22;46541;49.894;10.886;2022-10-17T11:13:17;22.00;99.90
60701;DHT22;46541;49.894;10.886;2022-10-17T11:15:50;22.10;99.90
60701;DHT22;46541;49.894;10.886;2022-10-17T11:23:39;22.30;99.90
60701;DHT22;46541;49.894;10.886;2022-10-17T11:26:12;22.30;99.90
60701;DHT22;46541;49.894;10.886;2022-10-17T11:28:40;22.40;99.90
60701;DHT22;46541;49.894;10.886;2022-10-17T11:31:11;22.40;99.90
60701;DHT22;46541;49.894;10.886;2022-10-17T11:33:46;22.50;99.90
60701;DHT22;46541;49.894;10.886;2022-10-17T11:36:18;22.50;99.90
60701;DHT22;46541;49.894;10.886;2022-10-17T11:38:52;22.60;99.90
60701;DHT22;46541;49.894;10.886;2022-10-17T11:44:04;22.50;99.90
60701;DHT22;46541;49.894;10.886;2022-10-17T11:46:33;22.50;99.90
60701;DHT22;46541;49.894;10.886;2022-10-17T11:51:42;22.70;99.90
60701;DHT22;46541;49.894;10.886;2022-10-17T11:54:40;22.70;99.90
60701;DHT22;46541;49.894;10.886;2022-10-17T12:02:44;22.60;99.90
60701;DHT22;46541;49.894;10.886;2022-10-17T12:05:33;22.60;99.90
60701;DHT22;46541;49.894;10.886;2022-10-17T12:08:11;22.70;99.90
60701;DHT22;46541;49.894;10.886;2022-10-17T12:18:46;22.70;99.90
60701;DHT22;46541;49.894;10.886;2022-10-17T12:21:13;22.60;99.90
60701;DHT22;46541;49.894;10.886;2022-10-17T12:23:51;22.50;99.90
60701;DHT22;46541;49.894;10.886;2022-10-17T12:26:26;22.50;99.90
60701;DHT22;46541;49.894;10.886;2022-10-17T12:28:54;22.60;99.90
60701;DHT22;46541;49.894;10.886;2022-10-17T12:31:24;22.60;99.90
60701;DHT22;46541;49.894;10.886;2022-10-17T12:33:59;22.60;99.90
60701;DHT22;46541;49.894;10.886;2022-10-17T12:57:56;22.70;99.90
60701;DHT22;46541;49.894;10.886;2022-10-17T13:00:55;22.60;99.90
60701;DHT22;46541;49.894;10.886;2022-10-17T13:03:46;22.60;99.90
60701;DHT22;46541;49.894;10.886;2022-10-17T13:06:47;22.60;99.90
60701;DHT22;46541;49.894;10.886;2022-10-17T13:09:31;22.50;99.90
60701;DHT22;46541;49.894;10.886;2022-10-17T13:12:02;22.50;99.90
60701;DHT22;46541;49.894;10.886;2022-10-17T13:14:31;22.50;99.90
60701;DHT22;46541;49.894;10.886;2022-10-17T13:17:01;22.50;99.90
60701;DHT22;46541;49.894;10.886;2022-10-17T13:19:30;22.50;99.90
60701;DHT22;46541;49.894;10.886;2022-10-17T13:22:19;22.40;99.90
60701;DHT22;46541;49.894;10.886;2022-10-17T13:24:48;22.40;99.90
60701;DHT22;46541;49.894;10.886;2022-10-17T13:27:34;22.40;99.90
60701;DHT22;46541;49.894;10.886;2022-10-17T13:30:21;22.40;99.90
60701;DHT22;46541;49.894;10.886;2022-10-17T13:32:52;22.40;99.90
60701;DHT22;46541;49.894;10.886;2022-10-17T13:38:26;22.40;99.90
60701;DHT22;46541;49.894;10.886;2022-10-17T13:40:54;22.40;99.90
60701;DHT22;46541;49.894;10.886;2022-10-17T13:43:31;22.40;99.90
60701;DHT22;46541;49.894;10.886;2022-10-17T13:46:00;22.30;99.90
60701;DHT22;46541;49.894;10.886;2022-10-17T13:48:51;22.30;99.90
60701;DHT22;46541;49.894;10.886;2022-10-17T13:51:18;22.20;99.90
60701;DHT22;46541;49.894;10.886;2022-10-17T13:53:45;22.20;99.90
60701;DHT22;46541;49.894;10.886;2022-10-17T13:59:00;22.10;99.90
60701;DHT22;46541;49.894;10.886;2022-10-17T14:01:29;22.00;99.90
60701;DHT22;46541;49.894;10.886;2022-10-17T14:03:57;22.00;99.90
60701;DHT22;46541;49.894;10.886;2022-10-17T14:06:45;21.90;99.90
60701;DHT22;46541;49.894;10.886;2022-10-17T14:12:08;21.80;99.90
60701;DHT22;46541;49.894;10.886;2022-10-17T14:14:38;21.70;99.90
60701;DHT22;46541;49.894;10.886;2022-10-17T14:17:26;21.70;99.90
60701;DHT22;46541;49.894;10.886;2022-10-17T14:19:57;21.60;99.90
60701;DHT22;46541;49.894;10.886;2022-10-17T14:22:45;21.60;99.90
60701;DHT22;46541;49.894;10.886;2022-10-17T14:25:31;21.50;99.90
60701;DHT22;46541;49.894;10.886;2022-10-17T14:30:44;21.40;99.90
60701;DHT22;46541;49.894;10.886;2022-10-17T14:33:29;21.40;99.90
60701;DHT22;46541;49.894;10.886;2022-10-17T14:35:59;21.40;99.90
60701;DHT22;46541;49.894;10.886;2022-10-17T14:38:27;21.40;99.90
60701;DHT22;46541;49.894;10.886;2022-10-17T14:40:58;21.40;99.90
60701;DHT22;46541;49.894;10.886;2022-10-17T14:43:55;21.40;99.90
60701;DHT22;46541;49.894;10.886;2022-10-17T14:46:22;21.30;99.90
60701;DHT22;46541;49.894;10.886;2022-10-17T14:48:55;21.40;99.90
60701;DHT22;46541;49.894;10.886;2022-10-17T14:51:22;21.30;99.90
60701;DHT22;46541;49.894;10.886;2022-10-17T14:54:19;21.30;99.90
60701;DHT22;46541;49.894;10.886;2022-10-17T14:56:52;21.20;99.90
60701;DHT22;46541;49.894;10.886;2022-10-17T14:59:19;21.20;99.90
60701;DHT22;46541;49.894;10.886;2022-10-17T15:02:10;21.20;99.90
60701;DHT22;46541;49.894;10.886;2022-10-17T15:04:36;21.20;99.90
60701;DHT22;46541;49.894;10.886;2022-10-17T15:07:03;21.20;99.90
60701;DHT22;46541;49.894;10.886;2022-10-17T15:09:30;21.20;99.90
60701;DHT22;46541;49.894;10.886;2022-10-17T15:12:01;21.10;99.90
60701;DHT22;46541;49.894;10.886;2022-10-17T15:14:29;21.10;99.90
60701;DHT22;46541;49.894;10.886;2022-10-17T15:16:56;21.10;99.90
60701;DHT22;46541;49.894;10.886;2022-10-17T15:19:23;21.10;99.90
60701;DHT22;46541;49.894;10.886;2022-10-17T15:21:49;21.10;99.90
60701;DHT22;46541;49.894;10.886;2022-10-17T15:24:16;21.10;99.90
60701;DHT22;46541;49.894;10.886;2022-10-17T15:26:43;21.10;99.90
60701;DHT22;46541;49.894;10.886;2022-10-17T15:29:14;21.00;99.90
60701;DHT22;46541;49.894;10.886;2022-10-17T15:31:41;21.00;99.90
60701;DHT22;46541;49.894;10.886;2022-10-17T15:34:08;21.00;99.90
60701;DHT22;46541;49.894;10.886;2022-10-17T15:36:39;21.00;99.90
60701;DHT22;46541;49.894;10.886;2022-10-17T15:39:06;20.90;99.90
60701;DHT22;46541;49.894;10.886;2022-10-17T15:41:32;20.90;99.90
60701;DHT22;46541;49.894;10.886;2022-10-17T15:43:59;20.80;99.90
60701;DHT22;46541;49.894;10.886;2022-10-17T15:46:28;20.80;99.90
60701;DHT22;46541;49.894;10.886;2022-10-17T15:49:00;20.70;99.90
60701;DHT22;46541;49.894;10.886;2022-10-17T15:51:27;20.70;99.90
60701;DHT22;46541;49.894;10.886;2022-10-17T15:53:54;20.60;99.90
60701;DHT22;46541;49.894;10.886;2022-10-17T15:56:25;20.50;99.90
60701;DHT22;46541;49.894;10.886;2022-10-17T15:58:52;20.50;99.90
60701;DHT22;46541;49.894;10.886;2022-10-17T16:01:23;20.40;99.90
60701;DHT22;46541;49.894;10.886;2022-10-17T16:03:50;20.30;99.90
60701;DHT22;46541;49.894;10.886;2022-10-17T16:06:18;20.20;99.90
60701;DHT22;46541;49.894;10.886;2022-10-17T16:08:46;20.20;99.90
60701;DHT22;46541;49.894;10.886;2022-10-17T16:14:00;20.00;99.90
60701;DHT22;46541;49.894;10.886;2022-10-17T16:16:27;20.00;99.90
60701;DHT22;46541;49.894;10.886;2022-10-17T16:18:54;19.90;99.90
60701;DHT22;46541;49.894;10.886;2022-10-17T16:21:24;19.90;99.90
60701;DHT22;46541;49.894;10.886;2022-10-17T16:23:52;19.80;99.90
60701;DHT22;46541;49.894;10.886;2022-10-17T16:26:19;19.70;99.90
60701;DHT22;46541;49.894;10.886;2022-10-17T16:28:46;19.70;99.90
60701;DHT22;46541;49.894;10.886;2022-10-17T16:31:22;19.60;99.90
60701;DHT22;46541;49.894;10.886;2022-10-17T16:33:50;19.60;99.90
60701;DHT22;46541;49.894;10.886;2022-10-17T16:36:18;19.50;99.90
60701;DHT22;46541;49.894;10.886;2022-10-17T16:38:46;19.40;99.90
60701;DHT22;46541;49.894;10.886;2022-10-17T16:43:48;19.30;99.90
60701;DHT22;46541;49.894;10.886;2022-10-17T16:46:16;19.20;99.90
60701;DHT22;46541;49.894;10.886;2022-10-17T16:48:44;19.10;99.90
60701;DHT22;46541;49.894;10.886;2022-10-17T16:51:12;19.10;99.90
60701;DHT22;46541;49.894;10.886;2022-10-17T16:53:39;19.00;99.90
60701;DHT22;46541;49.894;10.886;2022-10-17T16:56:11;18.90;99.90
60701;DHT22;46541;49.894;10.886;2022-10-17T16:58:39;18.90;99.90
60701;DHT22;46541;49.894;10.886;2022-10-17T17:01:11;18.80;99.90
60701;DHT22;46541;49.894;10.886;2022-10-17T17:03:40;18.80;99.90
60701;DHT22;46541;49.894;10.886;2022-10-17T17:06:11;18.80;99.90
60701;DHT22;46541;49.894;10.886;2022-10-17T17:08:38;18.80;99.90
60701;DHT22;46541;49.894;10.886;2022-10-17T17:11:06;18.70;99.90
60701;DHT22;46541;49.894;10.886;2022-10-17T17:13:33;18.70;99.90
60701;DHT22;46541;49.894;10.886;2022-10-17T17:16:07;18.60;99.90
60701;DHT22;46541;49.894;10.886;2022-10-17T17:18:35;18.60;99.90
60701;DHT22;46541;49.894;10.886;2022-10-17T17:21:04;18.60;99.90
60701;DHT22;46541;49.894;10.886;2022-10-17T17:23:33;18.50;99.90
60701;DHT22;46541;49.894;10.886;2022-10-17T17:26:10;18.50;99.90